Time;durP1;ratioP1;P1;durP2;ratioP2;P2;SDS_P1;SDS_P2;PMS_P1;PMS_P2;Temp;Humidity;BMP_temperature;BMP_pressure;BME280_temperature;BME280_humidity;BME280_pressure;Samples;Min_cycle;Max_cycle;Signal;HPM_P1;HPM_P2
2021/11/30 00:00:07;;;;;;;;;;;3.50;99.90;4.00;100068.00;;;;341591;28;92097;-86
2021/11/30 00:00:18;;;;;;;;;;;3.50;99.90;4.00;100068.00;;;;345941;28;95484;-86
2021/11/30 00:00:30;;;;;;;;;;;3.50;99.90;4.10;100075.00;;;;344098;28;92009;-86
2021/11/30 00:00:42;;;;;;;;;;;3.50;99.90;4.10;100075.00;;;;341739;28;95926;-85
2021/11/30 00:00:54;;;;;;;;;;;3.50;99.90;4.10;100076.00;;;;345518;28;92155;-86
2021/11/30 00:01:06;;;;;;;;;;;3.50;99.90;4.20;100073.00;;;;343001;28;94888;-86
2021/11/30 00:01:18;;;;;;;;;;;3.50;99.90;4.10;100070.00;;;;344350;28;91335;-85
2021/11/30 00:01:30;;;;;;;;;;;3.50;99.90;4.10;100069.00;;;;343159;28;94889;-86
2021/11/30 00:01:44;;;;;;;;;;;3.40;99.90;4.10;100069.00;;;;345630;28;91129;-86
2021/11/30 00:01:56;;;;;;;;;;;3.50;99.90;4.20;100069.00;;;;344569;28;92611;-85
2021/11/30 00:02:08;;;;;;;;;;;3.50;99.90;4.20;100069.00;;;;342863;28;91831;-86
2021/11/30 00:02:20;;;;;;;;;;;3.50;99.90;4.20;100070.00;;;;344546;28;93394;-86
2021/11/30 00:02:32;;;;;;;;;;;3.50;99.90;4.20;100075.00;;;;344367;28;91150;-86
2021/11/30 00:02:44;;;;;;;;;;;3.50;99.90;4.20;100078.00;;;;345951;28;93453;-86
2021/11/30 00:02:56;;;;;;;;;;;3.50;99.90;4.10;100075.00;;;;344415;28;91861;-85
2021/11/30 00:03:07;;;;;;;;;;;3.50;99.90;4.10;100077.00;;;;343078;28;95907;-86
2021/11/30 00:03:19;;;;;;;;;;;3.50;99.90;4.10;100081.00;;;;343063;28;91347;-85
2021/11/30 00:03:32;;;;;;;;;;;3.50;99.90;4.10;100073.00;;;;345874;28;91902;-86
2021/11/30 00:03:44;;;;;;;;;;;3.50;99.90;4.10;100079.00;;;;344074;28;92171;-86
2021/11/30 00:03:58;;;;;;;;;;;3.50;99.90;4.20;100082.00;;;;344606;28;93775;-85
2021/11/30 00:04:13;;;;;;;;;;;3.50;99.90;4.20;100077.00;;;;344445;28;91864;-86
2021/11/30 00:04:29;;;;;;;;;;;3.50;99.90;4.20;100081.00;;;;342881;28;94790;-86
2021/11/30 00:04:41;;;;;;;;;;;3.50;99.90;4.00;100080.00;;;;344296;28;91832;-85
2021/11/30 00:04:52;;;;;;;;;;;3.50;99.90;4.10;100077.00;;;;345784;28;96154;-86
2021/11/30 00:05:05;;;;;;;;;;;3.50;99.90;4.00;100080.00;;;;344062;28;92123;-86
2021/11/30 00:05:17;;;;;;;;;;;3.50;99.90;4.10;100082.00;;;;345726;28;94512;-86
2021/11/30 00:05:28;;;;;;;;;;;3.50;99.90;4.00;100079.00;;;;344343;28;91174;-86
2021/11/30 00:05:40;;;;;;;;;;;3.50;99.90;4.00;100076.00;;;;343110;28;93979;-85
2021/11/30 00:05:52;;;;;;;;;;;3.50;99.90;4.00;100082.00;;;;342758;28;92114;-86
2021/11/30 00:06:04;;;;;;;;;;;3.40;99.90;4.10;100060.00;;;;347165;28;95983;-86
2021/11/30 00:06:16;;;;;;;;;;;3.40;99.90;4.10;100078.00;;;;345776;28;91777;-86
2021/11/30 00:06:28;;;;;;;;;;;3.50;99.90;4.10;100073.00;;;;345719;28;93750;-86
2021/11/30 00:06:39;;;;;;;;;;;3.50;99.90;4.10;100074.00;;;;346859;28;91224;-85
2021/11/30 00:06:57;;;;;;;;;;;3.40;99.90;4.10;100068.00;;;;344413;28;94995;-86
2021/11/30 00:07:09;;;;;;;;;;;3.50;99.90;4.10;100083.00;;;;346964;28;91911;-86
2021/11/30 00:07:21;;;;;;;;;;;3.40;99.90;4.10;100077.00;;;;345622;28;96709;-86
2021/11/30 00:07:32;;;;;;;;;;;3.50;99.90;4.00;100064.00;;;;344398;28;91139;-86
2021/11/30 00:07:44;;;;;;;;;;;3.40;99.90;4.00;100064.00;;;;348559;27;94831;-85
2021/11/30 00:07:56;;;;;;;;;;;3.40;99.90;4.00;100067.00;;;;345715;28;91897;-85
2021/11/30 00:08:08;;;;;;;;;;;3.40;99.90;3.90;100069.00;;;;343251;28;94532;-86
2021/11/30 00:08:20;;;;;;;;;;;3.40;99.90;4.00;100070.00;;;;347024;28;91905;-86
2021/11/30 00:08:33;;;;;;;;;;;3.40;99.90;4.00;100075.00;;;;345984;28;94396;-85
2021/11/30 00:08:47;;;;;;;;;;;3.40;99.90;4.00;100076.00;;;;345667;28;91931;-86
2021/11/30 00:09:10;;;;;;;;;;;3.40;99.90;4.00;100077.00;;;;344515;28;94516;-85
2021/11/30 00:10:49;;;;;;;;;;;3.40;99.90;4.10;100068.00;;;;347331;28;91993;-86
2021/11/30 00:11:04;;;;;;;;;;;3.40;99.90;4.10;100080.00;;;;345660;28;91903;-85
2021/11/30 00:11:16;;;;;;;;;;;3.40;99.90;4.00;100067.00;;;;347102;28;94320;-86
2021/11/30 00:11:28;;;;;;;;;;;3.40;99.90;3.90;100062.00;;;;345724;28;91956;-86
2021/11/30 00:11:40;;;;;;;;;;;3.40;99.90;3.80;100075.00;;;;342992;28;95516;-85
2021/11/30 00:11:51;;;;;;;;;;;3.40;99.90;3.80;100073.00;;;;342864;28;92021;-85
2021/11/30 00:12:05;;;;;;;;;;;3.40;99.90;3.80;100069.00;;;;345752;28;94614;-86
2021/11/30 00:12:22;;;;;;;;;;;3.40;99.90;4.10;100069.00;;;;344083;28;92065;-86
2021/11/30 00:12:36;;;;;;;;;;;3.40;99.90;4.00;100067.00;;;;341728;28;93191;-86
2021/11/30 00:12:48;;;;;;;;;;;3.40;99.90;3.90;100069.00;;;;340181;28;91399;-86
2021/11/30 00:13:00;;;;;;;;;;;3.40;99.90;3.90;100078.00;;;;345952;28;92665;-86
2021/11/30 00:13:16;;;;;;;;;;;3.40;99.90;4.00;100077.00;;;;345619;28;92199;-85
2021/11/30 00:13:29;;;;;;;;;;;3.40;99.90;4.00;100076.00;;;;345674;28;96303;-86
2021/11/30 00:13:41;;;;;;;;;;;3.40;99.90;4.10;100075.00;;;;345416;28;91981;-86
2021/11/30 00:13:53;;;;;;;;;;;3.40;99.90;4.10;100077.00;;;;343116;28;95337;-86
2021/11/30 00:14:05;;;;;;;;;;;3.40;99.90;4.10;100078.00;;;;344215;28;91181;-85
2021/11/30 00:14:16;;;;;;;;;;;3.40;99.90;4.10;100067.00;;;;344563;28;92859;-85
2021/11/30 00:14:28;;;;;;;;;;;3.40;99.90;4.00;100064.00;;;;340216;28;91353;-86
2021/11/30 00:14:40;;;;;;;;;;;3.40;99.90;4.00;100070.00;;;;343132;28;95751;-86
2021/11/30 00:14:53;;;;;;;;;;;3.40;99.90;4.00;100069.00;;;;344370;28;90393;-86
2021/11/30 00:15:05;;;;;;;;;;;3.40;99.90;4.00;100075.00;;;;342978;28;95533;-86
2021/11/30 00:15:17;;;;;;;;;;;3.40;99.90;3.90;100073.00;;;;345379;28;92385;-87
2021/11/30 00:15:29;;;;;;;;;;;3.40;99.90;4.00;100061.00;;;;345918;28;95275;-87
2021/11/30 00:15:40;;;;;;;;;;;3.40;99.90;4.00;100075.00;;;;341244;28;92165;-87
2021/11/30 00:15:53;;;;;;;;;;;3.40;99.90;3.90;100065.00;;;;345832;28;93896;-86
2021/11/30 00:16:05;;;;;;;;;;;3.30;99.90;3.90;100074.00;;;;344085;28;91208;-87
2021/11/30 00:16:17;;;;;;;;;;;3.30;99.90;3.90;100068.00;;;;345933;28;95929;-87
2021/11/30 00:16:28;;;;;;;;;;;3.30;99.90;4.00;100078.00;;;;345580;28;92156;-87
2021/11/30 00:16:40;;;;;;;;;;;3.30;99.90;4.00;100074.00;;;;341890;28;92661;-87
2021/11/30 00:16:52;;;;;;;;;;;3.30;99.90;4.00;100063.00;;;;341624;28;91241;-86
2021/11/30 00:17:05;;;;;;;;;;;3.30;99.90;4.00;100073.00;;;;344403;28;93318;-87
2021/11/30 00:17:17;;;;;;;;;;;3.30;99.90;4.00;100073.00;;;;345412;28;91401;-86
2021/11/30 00:17:29;;;;;;;;;;;3.30;99.90;4.00;100075.00;;;;342995;28;94499;-87
2021/11/30 00:17:41;;;;;;;;;;;3.30;99.90;4.00;100068.00;;;;345548;28;91813;-86
2021/11/30 00:17:52;;;;;;;;;;;3.30;99.90;3.90;100064.00;;;;345792;28;93504;-87
2021/11/30 00:18:04;;;;;;;;;;;3.30;99.90;3.90;100076.00;;;;345750;28;91869;-87
2021/11/30 00:18:16;;;;;;;;;;;3.30;99.90;4.00;100067.00;;;;347376;28;92208;-87
2021/11/30 00:18:34;;;;;;;;;;;3.30;99.90;4.10;100076.00;;;;342855;28;92000;-87
2021/11/30 00:18:46;;;;;;;;;;;3.30;99.90;4.10;100066.00;;;;343126;28;94479;-87
2021/11/30 00:18:58;;;;;;;;;;;3.30;99.90;4.00;100070.00;;;;345628;28;91563;-87
2021/11/30 00:19:10;;;;;;;;;;;3.40;99.90;4.00;100068.00;;;;345909;28;93871;-86
2021/11/30 00:19:22;;;;;;;;;;;3.30;99.90;4.00;100070.00;;;;345726;28;91869;-87
2021/11/30 00:19:34;;;;;;;;;;;3.30;99.90;4.00;100066.00;;;;343200;28;93625;-87
2021/11/30 00:19:47;;;;;;;;;;;3.30;99.90;3.90;100068.00;;;;345705;28;91904;-87
2021/11/30 00:19:59;;;;;;;;;;;3.30;99.90;3.90;100075.00;;;;342823;28;94830;-87
2021/11/30 00:20:10;;;;;;;;;;;3.30;99.90;4.00;100061.00;;;;346804;28;91306;-87
2021/11/30 00:20:22;;;;;;;;;;;3.30;99.90;4.00;100068.00;;;;341649;28;94487;-87
2021/11/30 00:20:35;;;;;;;;;;;3.30;99.90;4.00;100074.00;;;;344054;28;91181;-86
2021/11/30 00:20:47;;;;;;;;;;;3.30;99.90;3.90;100065.00;;;;344634;28;93770;-86
2021/11/30 00:21:02;;;;;;;;;;;3.30;99.90;3.90;100063.00;;;;344039;28;90584;-86
2021/11/30 00:21:13;;;;;;;;;;;3.30;99.90;3.90;100067.00;;;;342710;28;92722;-87
2021/11/30 00:21:25;;;;;;;;;;;3.30;99.90;3.90;100063.00;;;;340152;28;92032;-86
2021/11/30 00:21:37;;;;;;;;;;;3.30;99.90;3.90;100062.00;;;;344451;28;95292;-86
2021/11/30 00:21:49;;;;;;;;;;;3.30;99.90;3.90;100067.00;;;;344255;28;91154;-87
2021/11/30 00:22:01;;;;;;;;;;;3.30;99.90;3.90;100063.00;;;;341695;28;92464;-87
2021/11/30 00:22:14;;;;;;;;;;;3.30;99.90;3.90;100057.00;;;;344072;28;92018;-87
2021/11/30 00:22:26;;;;;;;;;;;3.30;99.90;4.00;100068.00;;;;341595;28;94897;-86
2021/11/30 00:22:37;;;;;;;;;;;3.30;99.90;4.00;100073.00;;;;342903;28;92211;-86
2021/11/30 00:22:49;;;;;;;;;;;3.30;99.90;4.00;100076.00;;;;345692;28;94539;-86
2021/11/30 00:23:01;;;;;;;;;;;3.30;99.90;4.00;100075.00;;;;342547;28;91450;-87
2021/11/30 00:23:13;;;;;;;;;;;3.30;99.90;4.00;100073.00;;;;344528;28;92324;-87
2021/11/30 00:23:25;;;;;;;;;;;3.30;99.90;4.00;100068.00;;;;344226;28;91961;-87
2021/11/30 00:23:37;;;;;;;;;;;3.30;99.90;4.00;100056.00;;;;342777;28;96138;-87
2021/11/30 00:23:48;;;;;;;;;;;3.30;99.90;4.00;100069.00;;;;341425;28;91937;-87
2021/11/30 00:24:00;;;;;;;;;;;3.40;99.90;4.00;100070.00;;;;343009;28;93764;-87
2021/11/30 00:24:12;;;;;;;;;;;3.30;99.90;4.00;100069.00;;;;343893;28;91944;-87
2021/11/30 00:24:27;;;;;;;;;;;3.30;99.90;4.10;100070.00;;;;345890;28;96169;-87
2021/11/30 00:24:39;;;;;;;;;;;3.30;99.90;4.10;100078.00;;;;341535;28;91285;-86
2021/11/30 00:24:55;;;;;;;;;;;3.40;99.90;4.00;100081.00;;;;343126;28;95945;-86
2021/11/30 00:25:07;;;;;;;;;;;3.40;99.90;4.10;100075.00;;;;342607;28;90344;-87
2021/11/30 00:25:19;;;;;;;;;;;3.40;99.90;4.10;100069.00;;;;341828;28;90776;-87
2021/11/30 00:25:31;;;;;;;;;;;3.40;99.90;4.10;100074.00;;;;342865;28;91874;-86
2021/11/30 00:25:43;;;;;;;;;;;3.40;99.90;4.10;100068.00;;;;343081;28;93776;-87
2021/11/30 00:25:54;;;;;;;;;;;3.40;99.90;4.00;100078.00;;;;345017;28;92679;-86
2021/11/30 00:26:06;;;;;;;;;;;3.40;99.90;3.90;100070.00;;;;343012;28;94653;-87
2021/11/30 00:26:18;;;;;;;;;;;3.40;99.90;3.90;100073.00;;;;345597;28;91867;-87
2021/11/30 00:26:30;;;;;;;;;;;3.40;99.90;3.90;100077.00;;;;343103;28;95873;-87
2021/11/30 00:26:41;;;;;;;;;;;3.40;99.90;3.90;100070.00;;;;342871;28;92126;-87
2021/11/30 00:26:54;;;;;;;;;;;3.40;99.90;4.00;100074.00;;;;344496;28;94446;-86
2021/11/30 00:27:05;;;;;;;;;;;3.40;99.90;3.90;100079.00;;;;342588;28;90570;-86
2021/11/30 00:27:17;;;;;;;;;;;3.40;99.90;4.00;100069.00;;;;342597;28;93887;-87
2021/11/30 00:27:30;;;;;;;;;;;3.40;99.90;4.00;100079.00;;;;344160;28;91129;-87
2021/11/30 00:27:42;;;;;;;;;;;3.40;99.90;4.00;100078.00;;;;343673;28;95504;-87
2021/11/30 00:27:53;;;;;;;;;;;3.40;99.90;3.90;100076.00;;;;341310;28;92135;-87
2021/11/30 00:28:06;;;;;;;;;;;3.40;99.90;3.90;100081.00;;;;345585;28;95568;-86
2021/11/30 00:28:18;;;;;;;;;;;3.40;99.90;3.90;100070.00;;;;343892;28;92194;-87
2021/11/30 00:28:29;;;;;;;;;;;3.40;99.90;3.90;100081.00;;;;341762;28;93522;-87
2021/11/30 00:28:41;;;;;;;;;;;3.30;99.90;4.00;100062.00;;;;344885;28;91073;-88
2021/11/30 00:28:53;;;;;;;;;;;3.40;99.90;4.00;100076.00;;;;344531;28;92285;-86
2021/11/30 00:29:05;;;;;;;;;;;3.40;99.90;4.00;100076.00;;;;341399;28;91522;-87
2021/11/30 00:29:17;;;;;;;;;;;3.40;99.90;4.00;100070.00;;;;341712;28;93452;-87
2021/11/30 00:29:29;;;;;;;;;;;3.40;99.90;3.90;100081.00;;;;342823;28;92062;-87
2021/11/30 00:29:40;;;;;;;;;;;3.40;99.90;3.90;100077.00;;;;345856;28;91464;-87
2021/11/30 00:29:52;;;;;;;;;;;3.40;99.90;3.90;100076.00;;;;342743;28;92219;-87
2021/11/30 00:30:05;;;;;;;;;;;3.40;99.90;3.90;100074.00;;;;345585;28;94942;-87
2021/11/30 00:30:16;;;;;;;;;;;3.40;99.90;3.90;100079.00;;;;345688;28;92290;-87
2021/11/30 00:30:33;;;;;;;;;;;3.40;99.90;4.00;100068.00;;;;343087;28;92290;-86
2021/11/30 00:30:45;;;;;;;;;;;3.40;99.90;4.00;100075.00;;;;345167;28;92062;-87
2021/11/30 00:30:57;;;;;;;;;;;3.40;99.90;4.00;100078.00;;;;344476;28;94672;-87
2021/11/30 00:31:09;;;;;;;;;;;3.40;99.90;4.00;100075.00;;;;342884;28;90424;-87
2021/11/30 00:31:20;;;;;;;;;;;3.40;99.90;3.90;100081.00;;;;344471;28;95781;-87
2021/11/30 00:31:32;;;;;;;;;;;3.40;99.90;4.00;100077.00;;;;340167;28;91268;-86
2021/11/30 00:31:44;;;;;;;;;;;3.40;99.90;4.10;100088.00;;;;344321;28;93493;-87
2021/11/30 00:31:56;;;;;;;;;;;3.40;99.90;4.00;100076.00;;;;345578;28;92298;-87
2021/11/30 00:32:08;;;;;;;;;;;3.40;99.90;4.00;100077.00;;;;347028;28;94023;-87
2021/11/30 00:32:19;;;;;;;;;;;3.40;99.90;4.00;100082.00;;;;341413;28;91950;-87
2021/11/30 00:32:31;;;;;;;;;;;3.40;99.90;3.90;100079.00;;;;341576;28;94196;-86
2021/11/30 00:32:43;;;;;;;;;;;3.30;99.90;3.90;100069.00;;;;342743;28;92051;-86
2021/11/30 00:32:54;;;;;;;;;;;3.40;99.90;3.90;100077.00;;;;345653;28;93327;-87
2021/11/30 00:33:07;;;;;;;;;;;3.40;99.90;3.80;100085.00;;;;344142;28;90457;-87
2021/11/30 00:33:19;;;;;;;;;;;3.40;99.90;3.80;100077.00;;;;342124;28;92010;-87
2021/11/30 00:33:30;;;;;;;;;;;3.30;99.90;3.80;100083.00;;;;345210;28;92255;-87
2021/11/30 00:33:43;;;;;;;;;;;3.30;99.90;3.80;100093.00;;;;345735;28;93374;-87
2021/11/30 00:33:54;;;;;;;;;;;3.30;99.90;3.80;100080.00;;;;344256;28;92071;-87
2021/11/30 00:34:06;;;;;;;;;;;3.30;99.90;3.70;100081.00;;;;344461;28;93730;-86
2021/11/30 00:34:18;;;;;;;;;;;3.30;99.90;3.70;100075.00;;;;341167;28;92213;-86
2021/11/30 00:34:30;;;;;;;;;;;3.30;99.90;3.80;100085.00;;;;341773;28;93476;-87
2021/11/30 00:34:42;;;;;;;;;;;3.30;99.90;3.80;100078.00;;;;342809;28;92033;-86
2021/11/30 00:34:54;;;;;;;;;;;3.30;99.90;3.70;100087.00;;;;341367;28;95487;-86
2021/11/30 00:35:06;;;;;;;;;;;3.30;99.90;3.80;100086.00;;;;344021;28;90332;-86
2021/11/30 00:35:18;;;;;;;;;;;3.30;99.90;3.90;100085.00;;;;343219;28;92349;-87
2021/11/30 00:35:30;;;;;;;;;;;3.20;99.90;3.90;100086.00;;;;342510;28;92057;-87
2021/11/30 00:35:42;;;;;;;;;;;3.30;99.90;4.00;100083.00;;;;342858;28;95793;-86
2021/11/30 00:35:54;;;;;;;;;;;3.30;99.90;3.90;100090.00;;;;342640;28;92084;-86
2021/11/30 00:36:05;;;;;;;;;;;3.30;99.90;3.80;100092.00;;;;341824;28;91840;-87
2021/11/30 00:36:18;;;;;;;;;;;3.30;99.90;3.80;100082.00;;;;342875;28;92087;-86
2021/11/30 00:36:30;;;;;;;;;;;3.30;99.90;3.80;100090.00;;;;346838;28;93524;-87
2021/11/30 00:36:41;;;;;;;;;;;3.30;99.90;3.80;100096.00;;;;344060;28;92060;-86
2021/11/30 00:36:53;;;;;;;;;;;3.20;99.90;3.90;100085.00;;;;344287;28;92527;-86
2021/11/30 00:37:05;;;;;;;;;;;3.30;99.90;4.00;100085.00;;;;348061;27;91434;-86
2021/11/30 00:37:17;;;;;;;;;;;3.30;99.90;4.00;100078.00;;;;344478;28;91821;-87
2021/11/30 00:37:28;;;;;;;;;;;3.30;99.90;4.10;100089.00;;;;344050;28;92393;-86
2021/11/30 00:37:40;;;;;;;;;;;3.30;99.90;4.10;100091.00;;;;345765;28;94080;-86
2021/11/30 00:37:52;;;;;;;;;;;3.30;99.90;4.10;100089.00;;;;345493;28;91984;-87
2021/11/30 00:38:04;;;;;;;;;;;3.30;99.90;4.20;100083.00;;;;344194;28;91285;-86
2021/11/30 00:38:17;;;;;;;;;;;3.30;99.90;4.20;100086.00;;;;343359;28;92280;-86
2021/11/30 00:38:30;;;;;;;;;;;3.40;99.90;4.20;100093.00;;;;344405;28;93765;-86
2021/11/30 00:38:42;;;;;;;;;;;3.40;99.90;4.10;100082.00;;;;344750;28;92250;-87
2021/11/30 00:38:54;;;;;;;;;;;3.40;99.90;4.00;100078.00;;;;345720;28;93265;-86
2021/11/30 00:39:05;;;;;;;;;;;3.40;99.90;4.00;100092.00;;;;341447;28;91308;-87
2021/11/30 00:39:18;;;;;;;;;;;3.40;99.90;4.00;100096.00;;;;343092;28;96066;-87
2021/11/30 00:39:29;;;;;;;;;;;3.40;99.90;4.00;100092.00;;;;345540;28;92068;-87
2021/11/30 00:39:41;;;;;;;;;;;3.40;99.90;4.00;100087.00;;;;342943;28;93706;-86
2021/11/30 00:39:53;;;;;;;;;;;3.40;99.90;4.10;100087.00;;;;344382;28;92082;-86
2021/11/30 00:40:05;;;;;;;;;;;3.40;99.90;4.10;100092.00;;;;341825;28;92763;-86
2021/11/30 00:40:18;;;;;;;;;;;3.40;99.90;4.20;100092.00;;;;343962;28;91216;-86
2021/11/30 00:40:30;;;;;;;;;;;3.40;99.90;4.20;100093.00;;;;344238;28;93978;-86
2021/11/30 00:40:42;;;;;;;;;;;3.40;99.90;4.20;100098.00;;;;347019;28;91910;-87
2021/11/30 00:40:53;;;;;;;;;;;3.40;99.90;4.30;100091.00;;;;345801;28;96628;-86
2021/11/30 00:41:05;;;;;;;;;;;3.40;99.90;4.20;100089.00;;;;341412;28;90414;-86
2021/11/30 00:41:17;;;;;;;;;;;3.40;99.90;4.20;100094.00;;;;344328;28;95255;-86
2021/11/30 00:41:29;;;;;;;;;;;3.50;99.90;4.20;100088.00;;;;343918;28;92125;-87
2021/11/30 00:41:47;;;;;;;;;;;3.40;99.90;4.10;100095.00;;;;347218;28;93994;-87
2021/11/30 00:42:01;;;;;;;;;;;3.40;99.90;4.10;100093.00;;;;345695;28;91845;-86
2021/11/30 00:42:13;;;;;;;;;;;3.40;99.90;4.00;100087.00;;;;343800;28;95994;-86
2021/11/30 00:42:25;;;;;;;;;;;3.40;99.90;3.90;100085.00;;;;342927;28;91410;-86
2021/11/30 00:42:37;;;;;;;;;;;3.40;99.90;3.90;100090.00;;;;344225;28;96020;-86
2021/11/30 00:42:49;;;;;;;;;;;3.40;99.90;4.00;100088.00;;;;342630;28;91977;-86
2021/11/30 00:43:01;;;;;;;;;;;3.40;99.90;3.90;100092.00;;;;344319;28;93509;-87
2021/11/30 00:43:22;;;;;;;;;;;3.40;99.90;3.80;100095.00;;;;342837;28;91222;-87
2021/11/30 00:43:36;;;;;;;;;;;3.40;99.90;3.90;100097.00;;;;343116;28;92100;-86
2021/11/30 00:43:48;;;;;;;;;;;3.40;99.90;3.90;100096.00;;;;345526;28;92009;-86
2021/11/30 00:44:00;;;;;;;;;;;3.40;99.90;4.00;100092.00;;;;345618;28;95861;-86
2021/11/30 00:44:14;;;;;;;;;;;3.40;99.90;4.00;100100.00;;;;342801;28;92002;-86
2021/11/30 00:44:29;;;;;;;;;;;3.40;99.90;4.00;100091.00;;;;345611;28;96004;-86
2021/11/30 00:44:42;;;;;;;;;;;3.40;99.90;4.00;100094.00;;;;344144;28;91978;-86
2021/11/30 00:44:54;;;;;;;;;;;3.40;99.90;4.10;100098.00;;;;345874;28;95948;-87
2021/11/30 00:45:07;;;;;;;;;;;3.40;99.90;4.10;100087.00;;;;345267;28;91998;-86
2021/11/30 00:45:20;;;;;;;;;;;3.40;99.90;4.00;100093.00;;;;342762;28;95718;-86
2021/11/30 00:45:46;;;;;;;;;;;3.40;99.90;4.00;100096.00;;;;344030;28;90496;-86
2021/11/30 00:46:00;;;;;;;;;;;3.40;99.90;3.90;100094.00;;;;344562;28;92329;-86
2021/11/30 00:46:18;;;;;;;;;;;3.40;99.90;3.90;100093.00;;;;346623;28;92335;-86
2021/11/30 00:46:47;;;;;;;;;;;3.30;99.90;3.90;100100.00;;;;342751;28;92252;-86
2021/11/30 00:46:59;;;;;;;;;;;3.30;99.90;3.90;100092.00;;;;344203;28;94455;-86
2021/11/30 00:47:16;;;;;;;;;;;3.30;99.90;3.90;100088.00;;;;342813;28;91977;-86
2021/11/30 00:47:30;;;;;;;;;;;3.30;99.90;3.90;100094.00;;;;345899;28;93773;-86
2021/11/30 00:47:54;;;;;;;;;;;3.30;99.90;3.80;100087.00;;;;344301;28;91940;-87
2021/11/30 00:48:11;;;;;;;;;;;3.30;99.90;3.80;100097.00;;;;344547;28;93819;-86
2021/11/30 00:48:29;;;;;;;;;;;3.30;99.90;3.90;100093.00;;;;342420;28;90566;-86
2021/11/30 00:48:41;;;;;;;;;;;3.30;99.90;3.90;100087.00;;;;344529;28;91915;-86
2021/11/30 00:48:53;;;;;;;;;;;3.30;99.90;3.90;100095.00;;;;344242;28;91143;-87
2021/11/30 00:49:06;;;;;;;;;;;3.30;99.90;3.90;100093.00;;;;341788;28;93376;-85
2021/11/30 00:49:17;;;;;;;;;;;3.30;99.90;3.80;100100.00;;;;342255;28;92096;-86
2021/11/30 00:49:29;;;;;;;;;;;3.30;99.90;3.80;100093.00;;;;343112;28;93231;-86
2021/11/30 00:49:41;;;;;;;;;;;3.30;99.90;3.80;100097.00;;;;343617;28;92111;-86
2021/11/30 00:49:53;;;;;;;;;;;3.30;99.90;3.80;100095.00;;;;342781;28;94520;-86
2021/11/30 00:50:05;;;;;;;;;;;3.30;99.90;3.80;100096.00;;;;344201;28;92018;-86
2021/11/30 00:50:18;;;;;;;;;;;3.30;99.90;3.80;100095.00;;;;345602;28;94807;-86
2021/11/30 00:50:29;;;;;;;;;;;3.30;99.90;3.80;100096.00;;;;345611;28;91696;-87
2021/11/30 00:50:45;;;;;;;;;;;3.30;99.90;3.80;100100.00;;;;346002;28;90807;-87
2021/11/30 00:51:15;;;;;;;;;;;3.30;99.90;3.70;100100.00;;;;347157;28;91946;-85
2021/11/30 00:51:27;;;;;;;;;;;3.30;99.90;3.80;100098.00;;;;344931;28;95164;-86
2021/11/30 00:51:40;;;;;;;;;;;3.20;99.90;3.80;100092.00;;;;345547;28;91831;-86
2021/11/30 00:51:53;;;;;;;;;;;3.30;99.90;3.80;100098.00;;;;345945;28;92389;-86
2021/11/30 00:52:05;;;;;;;;;;;3.30;99.90;3.70;100092.00;;;;343033;28;91901;-86
2021/11/30 00:52:17;;;;;;;;;;;3.20;99.90;3.80;100098.00;;;;344176;28;96074;-86
2021/11/30 00:52:29;;;;;;;;;;;3.20;99.90;3.90;100104.00;;;;342834;28;92082;-86
2021/11/30 00:52:41;;;;;;;;;;;3.20;99.90;4.00;100096.00;;;;343228;28;93769;-87
2021/11/30 00:52:54;;;;;;;;;;;3.30;99.90;4.00;100097.00;;;;345568;28;90307;-86
2021/11/30 00:53:05;;;;;;;;;;;3.30;99.90;4.00;100097.00;;;;344170;28;93814;-86
2021/11/30 00:53:18;;;;;;;;;;;3.30;99.90;3.90;100095.00;;;;344145;28;92131;-86
2021/11/30 00:53:30;;;;;;;;;;;3.30;99.90;3.80;100108.00;;;;342997;28;94471;-86
2021/11/30 00:53:42;;;;;;;;;;;3.30;99.90;3.80;100103.00;;;;345376;28;92127;-86
2021/11/30 00:53:54;;;;;;;;;;;3.30;99.90;3.80;100102.00;;;;347094;27;93507;-86
2021/11/30 00:54:07;;;;;;;;;;;3.20;99.90;3.90;100101.00;;;;342942;28;91960;-86
2021/11/30 00:54:19;;;;;;;;;;;3.30;99.90;3.80;100097.00;;;;345425;28;95705;-87
2021/11/30 00:54:31;;;;;;;;;;;3.30;99.90;3.80;100101.00;;;;346954;28;92053;-86
2021/11/30 00:54:43;;;;;;;;;;;3.30;99.90;3.80;100104.00;;;;345109;28;92416;-86
2021/11/30 00:54:55;;;;;;;;;;;3.30;99.90;3.80;100100.00;;;;342939;28;90980;-86
2021/11/30 00:55:07;;;;;;;;;;;3.20;99.90;3.80;100104.00;;;;344480;28;92856;-87
2021/11/30 00:55:19;;;;;;;;;;;3.20;99.90;3.70;100101.00;;;;347001;28;91968;-86
2021/11/30 00:55:31;;;;;;;;;;;3.30;99.90;3.80;100104.00;;;;345677;28;95033;-86
2021/11/30 00:55:43;;;;;;;;;;;3.20;99.90;3.80;100098.00;;;;345602;28;91960;-86
2021/11/30 00:55:55;;;;;;;;;;;3.30;99.90;3.80;100092.00;;;;345892;28;91500;-86
2021/11/30 00:56:07;;;;;;;;;;;3.20;99.90;3.80;100095.00;;;;344084;28;91177;-86
2021/11/30 00:56:19;;;;;;;;;;;3.20;99.90;3.80;100101.00;;;;344228;28;95478;-86
2021/11/30 00:56:31;;;;;;;;;;;3.20;99.90;3.70;100102.00;;;;342472;28;92091;-87
2021/11/30 00:56:44;;;;;;;;;;;3.20;99.90;3.70;100113.00;;;;344325;28;93459;-86
2021/11/30 00:56:56;;;;;;;;;;;3.20;99.90;3.80;100103.00;;;;344349;28;90384;-86
2021/11/30 00:57:08;;;;;;;;;;;3.20;99.90;3.80;100104.00;;;;342738;28;93755;-86
2021/11/30 00:57:20;;;;;;;;;;;3.20;99.90;3.80;100106.00;;;;344101;28;91994;-86
2021/11/30 00:57:38;;;;;;;;;;;3.20;99.90;3.80;100098.00;;;;345896;28;93028;-86
2021/11/30 00:57:50;;;;;;;;;;;3.20;99.90;3.80;100110.00;;;;344071;28;92054;-86
2021/11/30 00:58:01;;;;;;;;;;;3.20;99.90;3.80;100106.00;;;;344487;28;93698;-86
2021/11/30 00:58:13;;;;;;;;;;;3.20;99.90;3.80;100109.00;;;;344328;28;92017;-86
2021/11/30 00:58:25;;;;;;;;;;;3.20;99.90;3.80;100102.00;;;;342984;28;94104;-87
2021/11/30 00:58:37;;;;;;;;;;;3.20;99.90;3.80;100105.00;;;;345347;28;92067;-86
2021/11/30 00:58:49;;;;;;;;;;;3.20;99.90;3.90;100110.00;;;;345646;28;95994;-86
2021/11/30 00:59:01;;;;;;;;;;;3.20;99.90;4.00;100111.00;;;;342779;28;90375;-86
2021/11/30 00:59:13;;;;;;;;;;;3.20;99.90;3.90;100107.00;;;;343184;28;92524;-86
2021/11/30 00:59:28;;;;;;;;;;;3.30;99.90;3.90;100106.00;;;;343890;28;91956;-87
2021/11/30 00:59:40;;;;;;;;;;;3.20;99.90;3.90;100105.00;;;;344232;28;96265;-85
2021/11/30 00:59:52;;;;;;;;;;;3.20;99.90;3.80;100105.00;;;;347055;28;92168;-86
2021/11/30 01:00:05;;;;;;;;;;;3.20;99.90;3.80;100109.00;;;;344371;28;95810;-86
2021/11/30 01:00:18;;;;;;;;;;;3.30;99.90;3.80;100109.00;;;;342041;28;92127;-86
2021/11/30 01:00:33;;;;;;;;;;;3.20;99.90;3.90;100104.00;;;;347007;28;93783;-86
2021/11/30 01:00:45;;;;;;;;;;;3.30;99.90;3.80;100106.00;;;;344271;28;91247;-86
2021/11/30 01:00:56;;;;;;;;;;;3.20;99.90;3.80;100105.00;;;;345685;28;94946;-86
2021/11/30 01:01:08;;;;;;;;;;;3.20;99.90;3.90;100097.00;;;;346920;28;91324;-86
2021/11/30 01:01:20;;;;;;;;;;;3.20;99.90;3.90;100105.00;;;;347154;28;94393;-86
2021/11/30 01:01:33;;;;;;;;;;;3.30;99.90;3.80;100111.00;;;;345329;28;92134;-86
2021/11/30 01:01:45;;;;;;;;;;;3.30;99.90;3.80;100094.00;;;;344219;28;93985;-86
2021/11/30 01:01:58;;;;;;;;;;;3.30;99.90;3.80;100111.00;;;;346955;28;92098;-86
2021/11/30 01:02:10;;;;;;;;;;;3.20;99.90;3.90;100101.00;;;;345884;28;94402;-86
2021/11/30 01:02:22;;;;;;;;;;;3.30;99.90;4.10;100110.00;;;;342741;28;91284;-86
2021/11/30 01:02:34;;;;;;;;;;;3.20;99.90;4.10;100105.00;;;;345640;28;95109;-85
2021/11/30 01:02:48;;;;;;;;;;;3.30;99.90;4.00;100098.00;;;;347045;28;91941;-87
2021/11/30 01:03:02;;;;;;;;;;;3.30;99.90;3.90;100103.00;;;;344308;28;96070;-85
2021/11/30 01:03:14;;;;;;;;;;;3.30;99.90;3.80;100111.00;;;;343786;28;90611;-86
2021/11/30 01:03:26;;;;;;;;;;;3.30;99.90;3.80;100114.00;;;;345319;28;91393;-86
2021/11/30 01:03:39;;;;;;;;;;;3.30;99.90;3.90;100100.00;;;;345398;28;92089;-86
2021/11/30 01:03:52;;;;;;;;;;;3.30;99.90;3.80;100113.00;;;;345703;28;92852;-86
2021/11/30 01:04:03;;;;;;;;;;;3.30;99.90;3.80;100111.00;;;;345638;28;92048;-86
2021/11/30 01:04:15;;;;;;;;;;;3.30;99.90;3.70;100116.00;;;;345641;28;92854;-86
2021/11/30 01:04:27;;;;;;;;;;;3.30;99.90;3.70;100108.00;;;;343712;28;92146;-86
2021/11/30 01:04:40;;;;;;;;;;;3.20;99.90;3.80;100111.00;;;;345871;28;92214;-86
2021/11/30 01:04:51;;;;;;;;;;;3.30;99.90;3.90;100110.00;;;;341668;28;91677;-86